KMEI/MEI METAR and TAF weather

Enter ICAO airport designator
Station Type Date Time Source
KMEI METAR 2020/09/22 04:58 UTC NOAA

KMEI 220458Z AUTO 07007KT 10SM FEW090 19/13 A3019 RMK AO2 SLP221 T01940133


Station Type Date Time Source
KMEI Decoded METAR 2020/09/22 04:58 UTC NOAA

MERIDIAN KEY FIELD, MS, United States (KMEI) 32-20N 088-45W 89M
Sep 22, 2020 - 12:58 AM EDT / 2020.09.22 0458 UTC
Wind: from the ENE (070 degrees) at 8 MPH (7 KT):0
Visibility: 10 mile(s):0
Sky conditions: mostly clear
Temperature: 66.9 F (19.4 C)
Dew Point: 55.9 F (13.3 C)
Relative Humidity: 67%
Pressure (altimeter): 30.19 in. Hg (1022 hPa)
ob: KMEI 220458Z AUTO 07007KT 10SM FEW090 19/13 A3019 RMK AO2 SLP221 T01940133
cycle: 5

Station Type Date Time Source
KMEI TAF 2020/09/21 18:09 UTC NOAA

TAF KMEI 211806Z 2118/2218 09010G16KT P6SM SCT045 BKN110
FM212200 08009KT P6SM SCT070 OVC090
FM221500 09009KT P6SM FEW010 OVC035

Example: see airport list